Beatriz B — 5BUB4 — position and weather

sailwx.info

Track history (hours):
 
Tides and Currents Weather Stations Pressure Air Temp Water Temp Dewpoint Dewpoint Depression Visibility Wind Speed Wind Dir Waves Ship Positions

Beatriz B

Last reported at 2018-Feb-20 08:43 UTC. Time now 2018-Feb-20 15:40 UTC.
Position N 39°33' W 010°39'.

Length 158 m; draft 7.8 m.

Type: Ship (hazmat cat A). MMSI: 209056000.

Date/timePositionNaut miles runAvg speedWind from/ knotsBaromVisibWave heightAir tempDewpointWater temp
2018-Feb-20 08:43N 39°33' W 010°39'1910.3
2018-Feb-20 06:51N 39°14' W 010°45'910.1
2018-Feb-20 06:00N 39°06' W 010°47'13510.4
2018-Feb-19 17:04N 36°54' W 011°22'110.4
2018-Feb-19 16:56N 36°53' W 011°22'1610.3
2018-Feb-19 15:24N 36°37' W 011°26'46110.0
2018-Feb-17 17:25N 29°06' W 013°21'410.5
2018-Feb-17 17:00N 29°02' W 013°24'510.1
2018-Feb-17 16:29N 28°59' W 013°28'3 6.3
2018-Feb-17 16:00N 28°58' W 013°32'0 0.1
2018-Feb-17 12:52N 28°58' W 013°32'0 0.0
2018-Feb-17 12:29N 28°58' W 013°32'0 0.0
2018-Feb-17 11:58N 28°58' W 013°32'0 0.0
2018-Feb-17 11:28N 28°58' W 013°32'0 0.0
2018-Feb-17 10:53N 28°58' W 013°32'0 0.0
2018-Feb-17 10:22N 28°58' W 013°32'0 0.0
2018-Feb-17 09:58N 28°58' W 013°32'0 0.0
2018-Feb-17 09:28N 28°58' W 013°32'0 0.0
2018-Feb-17 08:58N 28°58' W 013°32'0 0.0
2018-Feb-17 08:28N 28°58' W 013°32'0 0.0
2018-Feb-17 07:58N 28°58' W 013°32'0 0.0
2018-Feb-17 07:28N 28°58' W 013°32'0 0.0
2018-Feb-17 06:58N 28°58' W 013°32'0 0.0
2018-Feb-17 06:28N 28°58' W 013°32'0 0.0
2018-Feb-17 05:58N 28°58' W 013°32'0 0.0
2018-Feb-17 05:28N 28°58' W 013°32'0 0.0
2018-Feb-17 04:58N 28°58' W 013°32'0 0.0
2018-Feb-17 04:28N 28°58' W 013°32'0 0.0
2018-Feb-17 03:58N 28°58' W 013°32'0 0.0
2018-Feb-17 03:28N 28°58' W 013°32'0 0.0
2018-Feb-17 03:00N 28°58' W 013°32'1 2.1
2018-Feb-17 02:30N 28°57' W 013°32'510.5
2018-Feb-17 02:00N 28°52' W 013°35'612.3
2018-Feb-17 01:30N 28°47' W 013°38'612.3
2018-Feb-17 01:00N 28°42' W 013°42'612.2
2018-Feb-17 00:29N 28°36' W 013°45'612.2
2018-Feb-17 00:00N 28°31' W 013°49'3 5.7
2018-Feb-16 23:30N 28°30' W 013°51'0 0.2
2018-Feb-16 23:00N 28°30' W 013°51'0 0.0
2018-Feb-16 22:30N 28°30' W 013°51'0 0.0
2018-Feb-16 22:00N 28°30' W 013°51'37 2.5
2018-Feb-16 07:03N 28°02' W 014°19'0 8.2
2018-Feb-16 07:00N 28°01' W 014°20'4 8.2
2018-Feb-16 06:30N 28°00' W 014°24'4 8.0
2018-Feb-16 06:00N 27°59' W 014°28'4 7.9
2018-Feb-16 05:30N 27°58' W 014°33'4 8.2
2018-Feb-16 05:00N 27°58' W 014°37'4 8.3
2018-Feb-16 04:30N 27°59' W 014°42'4 8.0
2018-Feb-16 03:59N 28°00' W 014°46'4 7.6
2018-Feb-16 03:30N 28°01' W 014°50'4 7.6
2018-Feb-16 03:00N 28°02' W 014°55'4 7.8
2018-Feb-16 02:30N 28°02' W 014°59'4 8.2
2018-Feb-16 02:00N 28°03' W 015°04'4 8.4
2018-Feb-16 01:30N 28°04' W 015°08'4 8.4
2018-Feb-16 01:00N 28°05' W 015°13'4 8.1
2018-Feb-16 00:30N 28°06' W 015°17'4 8.0
2018-Feb-15 23:59N 28°07' W 015°22'3 6.2
2018-Feb-15 23:30N 28°08' W 015°25'1 0.8
2018-Feb-15 22:48N 28°09' W 015°25'0 0.0
2018-Feb-15 22:24N 28°09' W 015°25'0 0.0
2018-Feb-15 21:51N 28°09' W 015°25'0 0.0
2018-Feb-15 21:24N 28°09' W 015°25'0 0.0
2018-Feb-15 20:54N 28°09' W 015°25'0 0.0
2018-Feb-15 20:24N 28°09' W 015°25'0 0.0
2018-Feb-15 19:54N 28°09' W 015°25'0 0.0
2018-Feb-15 19:24N 28°09' W 015°25'0 0.0
2018-Feb-15 18:54N 28°09' W 015°25'0 0.0
2018-Feb-15 18:27N 28°09' W 015°25'0 0.0
2018-Feb-15 17:51N 28°09' W 015°25'0 0.0
2018-Feb-15 17:24N 28°09' W 015°25'0 0.0
2018-Feb-15 16:57N 28°09' W 015°25'0 0.0
2018-Feb-15 16:24N 28°09' W 015°25'0 0.0
2018-Feb-15 15:57N 28°09' W 015°25'0 0.0
2018-Feb-15 15:30N 28°09' W 015°25'0 0.0
2018-Feb-15 14:57N 28°09' W 015°25'0 0.0
2018-Feb-15 14:30N 28°09' W 015°25'0 0.0
2018-Feb-15 14:00N 28°09' W 015°25'0 0.0
2018-Feb-15 13:30N 28°09' W 015°25'0 0.0
2018-Feb-15 13:00N 28°09' W 015°25'0 0.0
2018-Feb-15 12:27N 28°09' W 015°25'0 0.0
2018-Feb-15 12:00N 28°09' W 015°25'0 0.0
2018-Feb-15 11:18N 28°09' W 015°25'0 0.0
2018-Feb-15 11:00N 28°09' W 015°25'0 0.0
2018-Feb-15 10:30N 28°09' W 015°25'0 0.0
2018-Feb-15 10:00N 28°09' W 015°25'0 0.0
2018-Feb-15 09:30N 28°09' W 015°25'0 0.0
2018-Feb-15 08:51N 28°09' W 015°25'0 0.0
2018-Feb-15 08:21N 28°09' W 015°25'0 0.0
2018-Feb-15 07:51N 28°09' W 015°25'0 0.0
2018-Feb-15 07:21N 28°09' W 015°25'0 0.0
2018-Feb-15 07:00N 28°09' W 015°25'0 0.4
2018-Feb-15 06:30N 28°09' W 015°25'2 3.4
2018-Feb-15 06:00N 28°07' W 015°24'5 8.9
2018-Feb-15 05:30N 28°12' W 015°23'611.8
2018-Feb-15 05:00N 28°14' W 015°29'612.2
2018-Feb-15 04:30N 28°16' W 015°35'612.3
2018-Feb-15 04:00N 28°18' W 015°42'612.5
2018-Feb-15 03:29N 28°20' W 015°49'612.3
2018-Feb-15 03:00N 28°23' W 015°55'611.9
2018-Feb-15 02:30N 28°25' W 016°01'611.9
2018-Feb-15 02:00N 28°27' W 016°08'611.5
2018-Feb-15 01:30N 28°29' W 016°14'1 1.1
2018-Feb-15 01:00N 28°29' W 016°14'0 0.0
2018-Feb-15 00:30N 28°29' W 016°14'0 0.0
2018-Feb-14 23:59N 28°29' W 016°14'0 0.0
2018-Feb-14 23:29N 28°29' W 016°14'0 0.0
2018-Feb-14 23:00N 28°29' W 016°14'0 0.0
2018-Feb-14 22:30N 28°29' W 016°14'0 0.0
2018-Feb-14 22:00N 28°29' W 016°14'0 0.0
2018-Feb-14 21:29N 28°29' W 016°14'0 0.0
2018-Feb-14 20:59N 28°29' W 016°14'0 0.0
2018-Feb-14 20:30N 28°29' W 016°14'0 0.0
2018-Feb-14 19:59N 28°29' W 016°14'0 0.0
2018-Feb-14 19:29N 28°29' W 016°14'0 0.0
2018-Feb-14 19:00N 28°29' W 016°14'0 0.0
2018-Feb-14 18:30N 28°29' W 016°14'0 0.0
2018-Feb-14 17:59N 28°29' W 016°14'0 0.0
2018-Feb-14 17:29N 28°29' W 016°14'0 0.0
2018-Feb-14 17:00N 28°29' W 016°14'0 0.0
2018-Feb-14 16:29N 28°29' W 016°14'0 0.0
2018-Feb-14 15:59N 28°29' W 016°14'0 0.0
2018-Feb-14 15:30N 28°29' W 016°14'0 0.0
2018-Feb-14 14:59N 28°29' W 016°14'0 0.0
2018-Feb-14 14:29N 28°29' W 016°14'0 0.0
2018-Feb-14 13:59N 28°29' W 016°14'0 0.0
2018-Feb-14 13:29N 28°29' W 016°14'0 0.0
2018-Feb-14 12:59N 28°29' W 016°14'0 0.0
2018-Feb-14 12:26N 28°29' W 016°14'0 0.0
2018-Feb-14 11:59N 28°29' W 016°14'0 0.3
2018-Feb-14 11:30N 28°29' W 016°14'2 3.3
2018-Feb-14 11:00N 28°28' W 016°12'3 5.7
2018-Feb-14 10:30N 28°28' W 016°09'713.6
2018-Feb-14 10:00N 28°33' W 016°03'66015.5
2018-Feb-12 15:18N 38°11' W 009°40'515.6
2018-Feb-12 15:00N 38°15' W 009°38'815.6
2018-Feb-12 14:28N 38°23' W 009°33'715.9
2018-Feb-12 14:00N 38°29' W 009°29'815.6
2018-Feb-12 13:30N 38°36' W 009°24'714.6
2018-Feb-12 13:01N 38°41' W 009°17'510.4
2018-Feb-12 12:30N 38°42' W 009°11'1 1.1
2018-Feb-12 11:57N 38°42' W 009°10'0 0.0
2018-Feb-12 11:30N 38°42' W 009°10'0 0.0
2018-Feb-12 11:00N 38°42' W 009°10'0 0.0
2018-Feb-12 10:30N 38°42' W 009°10'0 0.0
2018-Feb-12 10:00N 38°42' W 009°10'0 0.0
2018-Feb-12 09:30N 38°42' W 009°10'0 0.0
2018-Feb-12 09:00N 38°42' W 009°10'0 0.0
2018-Feb-12 08:30N 38°42' W 009°10'0 0.0
2018-Feb-12 08:00N 38°42' W 009°10'0 0.0
2018-Feb-12 07:30N 38°42' W 009°10'0 0.6
2018-Feb-12 07:00N 38°42' W 009°10'4 7.9
2018-Feb-12 06:30N 38°41' W 009°15'510.1
2018-Feb-12 06:00N 38°39' W 009°21'713.2
2018-Feb-12 05:30N 38°37' W 009°29'714.8
2018-Feb-12 05:00N 38°39' W 009°38'612.7
2018-Feb-12 04:30N 38°44' W 009°43'815.6
2018-Feb-12 04:00N 38°51' W 009°44'815.4
2018-Feb-12 03:30N 38°59' W 009°45'815.5
2018-Feb-12 03:00N 39°07' W 009°45'815.9
2018-Feb-12 02:30N 39°15' W 009°45'815.3
2018-Feb-12 01:59N 39°23' W 009°45'  
Track history (hours):
 
Tides and Currents Weather Stations Pressure Air Temp Water Temp Dewpoint Dewpoint Depression Visibility Wind Speed Wind Dir Waves Ship Positions

Beatriz B

Last reported at 2018-Feb-20 08:43 UTC. Time now 2018-Feb-20 15:40 UTC.
Position N 39°33' W 010°39'.

Length 158 m; draft 7.8 m.

Type: Ship (hazmat cat A). MMSI: 209056000.

Date/timePositionNaut miles runAvg speedWind from/ knotsBaromVisibWave heightAir tempDewpointWater temp
2018-Feb-20 08:43N 39°33' W 010°39'1910.3
2018-Feb-20 06:51N 39°14' W 010°45'910.1
2018-Feb-20 06:00N 39°06' W 010°47'13510.4
2018-Feb-19 17:04N 36°54' W 011°22'110.4
2018-Feb-19 16:56N 36°53' W 011°22'1610.3
2018-Feb-19 15:24N 36°37' W 011°26'46110.0
2018-Feb-17 17:25N 29°06' W 013°21'410.5
2018-Feb-17 17:00N 29°02' W 013°24'510.1
2018-Feb-17 16:29N 28°59' W 013°28'3 6.3
2018-Feb-17 16:00N 28°58' W 013°32'0 0.1
2018-Feb-17 12:52N 28°58' W 013°32'0 0.0
2018-Feb-17 12:29N 28°58' W 013°32'0 0.0
2018-Feb-17 11:58N 28°58' W 013°32'0 0.0
2018-Feb-17 11:28N 28°58' W 013°32'0 0.0
2018-Feb-17 10:53N 28°58' W 013°32'0 0.0
2018-Feb-17 10:22N 28°58' W 013°32'0 0.0
2018-Feb-17 09:58N 28°58' W 013°32'0 0.0
2018-Feb-17 09:28N 28°58' W 013°32'0 0.0
2018-Feb-17 08:58N 28°58' W 013°32'0 0.0
2018-Feb-17 08:28N 28°58' W 013°32'0 0.0
2018-Feb-17 07:58N 28°58' W 013°32'0 0.0
2018-Feb-17 07:28N 28°58' W 013°32'0 0.0
2018-Feb-17 06:58N 28°58' W 013°32'0 0.0
2018-Feb-17 06:28N 28°58' W 013°32'0 0.0
2018-Feb-17 05:58N 28°58' W 013°32'0 0.0
2018-Feb-17 05:28N 28°58' W 013°32'0 0.0
2018-Feb-17 04:58N 28°58' W 013°32'0 0.0
2018-Feb-17 04:28N 28°58' W 013°32'0 0.0
2018-Feb-17 03:58N 28°58' W 013°32'0 0.0
2018-Feb-17 03:28N 28°58' W 013°32'0 0.0
2018-Feb-17 03:00N 28°58' W 013°32'1 2.1
2018-Feb-17 02:30N 28°57' W 013°32'510.5
2018-Feb-17 02:00N 28°52' W 013°35'612.3
2018-Feb-17 01:30N 28°47' W 013°38'612.3
2018-Feb-17 01:00N 28°42' W 013°42'612.2
2018-Feb-17 00:29N 28°36' W 013°45'612.2
2018-Feb-17 00:00N 28°31' W 013°49'3 5.7
2018-Feb-16 23:30N 28°30' W 013°51'0 0.2
2018-Feb-16 23:00N 28°30' W 013°51'0 0.0
2018-Feb-16 22:30N 28°30' W 013°51'0 0.0
2018-Feb-16 22:00N 28°30' W 013°51'37 2.5
2018-Feb-16 07:03N 28°02' W 014°19'0 8.2
2018-Feb-16 07:00N 28°01' W 014°20'4 8.2
2018-Feb-16 06:30N 28°00' W 014°24'4 8.0
2018-Feb-16 06:00N 27°59' W 014°28'4 7.9
2018-Feb-16 05:30N 27°58' W 014°33'4 8.2
2018-Feb-16 05:00N 27°58' W 014°37'4 8.3
2018-Feb-16 04:30N 27°59' W 014°42'4 8.0
2018-Feb-16 03:59N 28°00' W 014°46'4 7.6
2018-Feb-16 03:30N 28°01' W 014°50'4 7.6
2018-Feb-16 03:00N 28°02' W 014°55'4 7.8
2018-Feb-16 02:30N 28°02' W 014°59'4 8.2
2018-Feb-16 02:00N 28°03' W 015°04'4 8.4
2018-Feb-16 01:30N 28°04' W 015°08'4 8.4
2018-Feb-16 01:00N 28°05' W 015°13'4 8.1
2018-Feb-16 00:30N 28°06' W 015°17'4 8.0
2018-Feb-15 23:59N 28°07' W 015°22'3 6.2
2018-Feb-15 23:30N 28°08' W 015°25'1 0.8
2018-Feb-15 22:48N 28°09' W 015°25'0 0.0
2018-Feb-15 22:24N 28°09' W 015°25'0 0.0
2018-Feb-15 21:51N 28°09' W 015°25'0 0.0
2018-Feb-15 21:24N 28°09' W 015°25'0 0.0
2018-Feb-15 20:54N 28°09' W 015°25'0 0.0
2018-Feb-15 20:24N 28°09' W 015°25'0 0.0
2018-Feb-15 19:54N 28°09' W 015°25'0 0.0
2018-Feb-15 19:24N 28°09' W 015°25'0 0.0
2018-Feb-15 18:54N 28°09' W 015°25'0 0.0
2018-Feb-15 18:27N 28°09' W 015°25'0 0.0
2018-Feb-15 17:51N 28°09' W 015°25'0 0.0
2018-Feb-15 17:24N 28°09' W 015°25'0 0.0
2018-Feb-15 16:57N 28°09' W 015°25'0 0.0
2018-Feb-15 16:24N 28°09' W 015°25'0 0.0
2018-Feb-15 15:57N 28°09' W 015°25'0 0.0
2018-Feb-15 15:30N 28°09' W 015°25'0 0.0
2018-Feb-15 14:57N 28°09' W 015°25'0 0.0
2018-Feb-15 14:30N 28°09' W 015°25'0 0.0
2018-Feb-15 14:00N 28°09' W 015°25'0 0.0
2018-Feb-15 13:30N 28°09' W 015°25'0 0.0
2018-Feb-15 13:00N 28°09' W 015°25'0 0.0
2018-Feb-15 12:27N 28°09' W 015°25'0 0.0
2018-Feb-15 12:00N 28°09' W 015°25'0 0.0
2018-Feb-15 11:18N 28°09' W 015°25'0 0.0
2018-Feb-15 11:00N 28°09' W 015°25'0 0.0
2018-Feb-15 10:30N 28°09' W 015°25'0 0.0
2018-Feb-15 10:00N 28°09' W 015°25'0 0.0
2018-Feb-15 09:30N 28°09' W 015°25'0 0.0
2018-Feb-15 08:51N 28°09' W 015°25'0 0.0
2018-Feb-15 08:21N 28°09' W 015°25'0 0.0
2018-Feb-15 07:51N 28°09' W 015°25'0 0.0
2018-Feb-15 07:21N 28°09' W 015°25'0 0.0
2018-Feb-15 07:00N 28°09' W 015°25'0 0.4
2018-Feb-15 06:30N 28°09' W 015°25'2 3.4
2018-Feb-15 06:00N 28°07' W 015°24'5 8.9
2018-Feb-15 05:30N 28°12' W 015°23'611.8
2018-Feb-15 05:00N 28°14' W 015°29'612.2
2018-Feb-15 04:30N 28°16' W 015°35'612.3
2018-Feb-15 04:00N 28°18' W 015°42'612.5
2018-Feb-15 03:29N 28°20' W 015°49'612.3
2018-Feb-15 03:00N 28°23' W 015°55'611.9
2018-Feb-15 02:30N 28°25' W 016°01'611.9
2018-Feb-15 02:00N 28°27' W 016°08'611.5
2018-Feb-15 01:30N 28°29' W 016°14'1 1.1
2018-Feb-15 01:00N 28°29' W 016°14'0 0.0
2018-Feb-15 00:30N 28°29' W 016°14'0 0.0
2018-Feb-14 23:59N 28°29' W 016°14'0 0.0
2018-Feb-14 23:29N 28°29' W 016°14'0 0.0
2018-Feb-14 23:00N 28°29' W 016°14'0 0.0
2018-Feb-14 22:30N 28°29' W 016°14'0 0.0
2018-Feb-14 22:00N 28°29' W 016°14'0 0.0
2018-Feb-14 21:29N 28°29' W 016°14'0 0.0
2018-Feb-14 20:59N 28°29' W 016°14'0 0.0
2018-Feb-14 20:30N 28°29' W 016°14'0 0.0
2018-Feb-14 19:59N 28°29' W 016°14'0 0.0
2018-Feb-14 19:29N 28°29' W 016°14'0 0.0
2018-Feb-14 19:00N 28°29' W 016°14'0 0.0
2018-Feb-14 18:30N 28°29' W 016°14'0 0.0
2018-Feb-14 17:59N 28°29' W 016°14'0 0.0
2018-Feb-14 17:29N 28°29' W 016°14'0 0.0
2018-Feb-14 17:00N 28°29' W 016°14'0 0.0
2018-Feb-14 16:29N 28°29' W 016°14'0 0.0
2018-Feb-14 15:59N 28°29' W 016°14'0 0.0
2018-Feb-14 15:30N 28°29' W 016°14'0 0.0
2018-Feb-14 14:59N 28°29' W 016°14'0 0.0
2018-Feb-14 14:29N 28°29' W 016°14'0 0.0
2018-Feb-14 13:59N 28°29' W 016°14'0 0.0
2018-Feb-14 13:29N 28°29' W 016°14'0 0.0
2018-Feb-14 12:59N 28°29' W 016°14'0 0.0
2018-Feb-14 12:26N 28°29' W 016°14'0 0.0
2018-Feb-14 11:59N 28°29' W 016°14'0 0.3
2018-Feb-14 11:30N 28°29' W 016°14'2 3.3
2018-Feb-14 11:00N 28°28' W 016°12'3 5.7
2018-Feb-14 10:30N 28°28' W 016°09'713.6
2018-Feb-14 10:00N 28°33' W 016°03'66015.5
2018-Feb-12 15:18N 38°11' W 009°40'515.6
2018-Feb-12 15:00N 38°15' W 009°38'815.6
2018-Feb-12 14:28N 38°23' W 009°33'715.9
2018-Feb-12 14:00N 38°29' W 009°29'815.6
2018-Feb-12 13:30N 38°36' W 009°24'714.6
2018-Feb-12 13:01N 38°41' W 009°17'510.4
2018-Feb-12 12:30N 38°42' W 009°11'1 1.1
2018-Feb-12 11:57N 38°42' W 009°10'0 0.0
2018-Feb-12 11:30N 38°42' W 009°10'0 0.0
2018-Feb-12 11:00N 38°42' W 009°10'0 0.0
2018-Feb-12 10:30N 38°42' W 009°10'0 0.0
2018-Feb-12 10:00N 38°42' W 009°10'0 0.0
2018-Feb-12 09:30N 38°42' W 009°10'0 0.0
2018-Feb-12 09:00N 38°42' W 009°10'0 0.0
2018-Feb-12 08:30N 38°42' W 009°10'0 0.0
2018-Feb-12 08:00N 38°42' W 009°10'0 0.0
2018-Feb-12 07:30N 38°42' W 009°10'0 0.6
2018-Feb-12 07:00N 38°42' W 009°10'4 7.9
2018-Feb-12 06:30N 38°41' W 009°15'510.1
2018-Feb-12 06:00N 38°39' W 009°21'713.2
2018-Feb-12 05:30N 38°37' W 009°29'714.8
2018-Feb-12 05:00N 38°39' W 009°38'612.7
2018-Feb-12 04:30N 38°44' W 009°43'815.6
2018-Feb-12 04:00N 38°51' W 009°44'815.4
2018-Feb-12 03:30N 38°59' W 009°45'815.5
2018-Feb-12 03:00N 39°07' W 009°45'815.9
2018-Feb-12 02:30N 39°15' W 009°45'815.3
2018-Feb-12 01:59N 39°23' W 009°45'  

Dump ship's entire track history